Time;durP1;ratioP1;P1;durP2;ratioP2;P2;SDS_P1;SDS_P2;PMS_P1;PMS_P2;Temp;Humidity;BMP_temperature;BMP_pressure;BME280_temperature;BME280_humidity;BME280_pressure;Samples;Min_cycle;Max_cycle;Signal;HPM_P1;HPM_P2
2023/12/10 00:01:44;;;;;;;3.03;1.92;;;;;;;6.49;100.00;99197.28;6274720;28;20044;-69
2023/12/10 00:04:46;;;;;;;5.07;1.95;;;;;;;6.55;100.00;99206.53;6274213;28;20373;-69
2023/12/10 00:07:48;;;;;;;9.40;2.75;;;;;;;6.57;100.00;99213.31;6265926;28;20056;-70
2023/12/10 00:10:50;;;;;;;14.05;2.40;;;;;;;6.70;100.00;99215.19;6274997;28;20453;-69
2023/12/10 00:13:52;;;;;;;6.45;3.20;;;;;;;6.81;100.00;99225.78;6274642;28;20041;-69
2023/12/10 00:16:53;;;;;;;10.05;2.20;;;;;;;6.90;100.00;99235.66;6274534;28;20060;-69
2023/12/10 00:19:55;;;;;;;8.10;3.17;;;;;;;6.95;100.00;99235.34;6274694;28;20049;-69
2023/12/10 00:22:57;;;;;;;4.78;2.15;;;;;;;6.99;100.00;99242.06;6274036;28;20449;-70
2023/12/10 00:25:59;;;;;;;9.20;2.95;;;;;;;7.01;100.00;99243.66;6276941;28;20361;-69
2023/12/10 00:29:00;;;;;;;5.93;1.92;;;;;;;7.08;100.00;99250.16;6279012;28;20056;-69
2023/12/10 00:32:01;;;;;;;4.35;2.10;;;;;;;7.10;100.00;99253.53;6279097;28;20484;-69
2023/12/10 00:35:03;;;;;;;7.45;1.88;;;;;;;7.12;100.00;99253.44;6278805;28;20065;-69
2023/12/10 00:38:06;;;;;;;23.48;3.63;;;;;;;7.19;100.00;99264.34;6279094;28;20056;-69
2023/12/10 00:41:10;;;;;;;16.30;1.92;;;;;;;7.31;100.00;99269.63;6278885;28;20060;-69
2023/12/10 00:44:11;;;;;;;7.63;2.03;;;;;;;7.36;100.00;99272.78;6278790;28;20048;-69
2023/12/10 00:47:13;;;;;;;13.50;2.03;;;;;;;7.40;100.00;99281.25;6278774;28;20052;-69
2023/12/10 00:50:14;;;;;;;4.57;1.73;;;;;;;7.44;100.00;99301.03;6278470;28;20060;-70
2023/12/10 00:53:17;;;;;;;13.48;2.15;;;;;;;7.52;100.00;99295.31;6278470;28;20049;-69
2023/12/10 00:56:18;;;;;;;14.07;1.77;;;;;;;7.55;100.00;99302.97;6278503;28;20457;-69
2023/12/10 00:59:20;;;;;;;27.67;2.65;;;;;;;7.56;100.00;99309.88;6278475;28;20055;-69
2023/12/10 01:02:22;;;;;;;15.80;2.22;;;;;;;7.58;100.00;99311.44;6278237;28;20071;-70
2023/12/10 01:05:23;;;;;;;16.10;2.33;;;;;;;7.55;100.00;99314.28;6278250;28;20433;-70
2023/12/10 01:08:26;;;;;;;17.60;2.85;;;;;;;7.55;100.00;99324.72;6290108;22;20092;-72
2023/12/10 01:11:27;;;;;;;22.70;4.43;;;;;;;7.52;100.00;99329.31;6227914;28;20057;-71
2023/12/10 01:14:29;;;;;;;23.65;2.30;;;;;;;7.53;100.00;99337.03;6228476;28;20054;-71
2023/12/10 01:17:30;;;;;;;21.42;2.10;;;;;;;7.50;100.00;99339.03;6228719;28;20049;-71
2023/12/10 01:20:33;;;;;;;16.45;1.83;;;;;;;7.50;100.00;99349.50;6228494;28;20477;-71
2023/12/10 01:23:36;;;;;;;16.98;1.70;;;;;;;7.50;100.00;99352.09;6228171;28;20046;-71
2023/12/10 01:26:37;;;;;;;12.95;1.98;;;;;;;7.53;100.00;99362.34;6228664;28;20168;-71
2023/12/10 01:29:39;;;;;;;11.57;3.08;;;;;;;7.61;100.00;99357.47;6228364;28;20050;-72
2023/12/10 01:32:40;;;;;;;15.90;2.53;;;;;;;7.57;100.00;99367.28;6227973;28;20448;-71
2023/12/10 01:35:42;;;;;;;18.80;2.30;;;;;;;7.59;100.00;99362.81;6237960;28;20049;-71
2023/12/10 01:38:44;;;;;;;23.08;2.58;;;;;;;7.59;100.00;99375.06;6242363;28;20060;-72
2023/12/10 01:41:46;;;;;;;18.08;3.00;;;;;;;7.60;100.00;99374.09;6238794;28;20390;-71
2023/12/10 01:44:47;;;;;;;22.60;2.10;;;;;;;7.59;100.00;99381.13;6252736;28;20056;-70
2023/12/10 01:47:51;;;;;;;22.30;3.83;;;;;;;7.68;100.00;99384.09;6252557;28;20053;-72
2023/12/10 01:50:53;;;;;;;23.92;2.33;;;;;;;7.61;100.00;99383.63;6252784;28;20179;-72
2023/12/10 01:53:56;;;;;;;25.92;2.50;;;;;;;7.57;100.00;99385.59;6248685;28;20124;-73
2023/12/10 01:56:57;;;;;;;12.88;1.95;;;;;;;7.57;100.00;99401.28;6244035;28;20060;-73
2023/12/10 01:59:59;;;;;;;35.92;3.42;;;;;;;7.58;100.00;99391.66;6252376;28;20606;-73
2023/12/10 02:03:02;;;;;;;18.58;1.67;;;;;;;7.54;100.00;99396.25;6251945;28;20354;-73
2023/12/10 02:06:04;;;;;;;14.82;1.95;;;;;;;7.49;100.00;99403.53;6251721;28;20803;-73
2023/12/10 02:09:09;;;;;;;16.02;1.67;;;;;;;7.54;100.00;99400.63;6242525;28;20457;-73
2023/12/10 02:12:11;;;;;;;35.63;3.97;;;;;;;7.51;100.00;99395.59;6249770;28;20053;-72
2023/12/10 02:15:16;;;;;;;12.63;1.65;;;;;;;7.56;100.00;99399.59;6248152;28;20175;-72
2023/12/10 02:18:19;;;;;;;19.77;3.83;;;;;;;7.54;100.00;99403.22;6243671;28;20052;-70
2023/12/10 02:21:21;;;;;;;21.10;2.97;;;;;;;7.56;100.00;99417.91;6251679;28;20056;-70
2023/12/10 02:24:30;;;;;;;16.20;2.38;;;;;;;7.49;100.00;99410.53;6251564;28;20053;-70
2023/12/10 02:27:33;;;;;;;17.20;2.28;;;;;;;7.51;100.00;99419.97;6251746;28;20452;-71
2023/12/10 02:30:35;;;;;;;29.85;3.53;;;;;;;7.53;100.00;99420.69;6251760;28;20057;-70
2023/12/10 02:33:36;;;;;;;21.60;2.72;;;;;;;7.49;100.00;99429.66;6251150;28;20050;-70
2023/12/10 02:36:38;;;;;;;23.48;3.47;;;;;;;7.57;100.00;99429.19;6251399;28;20049;-70
2023/12/10 02:39:39;;;;;;;19.85;2.33;;;;;;;7.66;100.00;99440.84;6251498;28;20045;-70
2023/12/10 02:42:42;;;;;;;21.40;2.47;;;;;;;7.66;100.00;99439.06;6251137;28;20045;-70
2023/12/10 02:45:43;;;;;;;18.42;2.78;;;;;;;7.63;100.00;99442.75;6251196;28;20049;-70
2023/12/10 02:48:45;;;;;;;24.30;2.65;;;;;;;7.56;100.00;99443.19;6250379;28;20458;-70
2023/12/10 02:51:46;;;;;;;13.60;2.25;;;;;;;7.53;100.00;99436.38;6251232;28;20057;-70
2023/12/10 02:54:48;;;;;;;20.65;2.95;;;;;;;7.58;100.00;99438.72;6250865;28;20350;-70
2023/12/10 02:57:50;;;;;;;19.35;3.33;;;;;;;7.61;100.00;99435.91;6251226;28;20353;-72
2023/12/10 03:00:52;;;;;;;17.67;1.80;;;;;;;7.64;100.00;99435.72;6250739;28;20050;-70
2023/12/10 03:03:53;;;;;;;29.33;3.45;;;;;;;7.71;100.00;99441.41;6250871;28;20075;-69
2023/12/10 03:06:54;;;;;;;15.98;3.97;;;;;;;7.68;100.00;99452.91;6232489;28;20603;-72
2023/12/10 03:09:55;;;;;;;21.80;2.45;;;;;;;7.63;100.00;99453.19;6226064;28;20046;-69
2023/12/10 03:12:58;;;;;;;32.60;3.22;;;;;;;7.63;100.00;99457.59;6226199;28;20054;-70
2023/12/10 03:15:59;;;;;;;10.35;2.30;;;;;;;7.59;100.00;99453.47;6225428;28;20050;-70
2023/12/10 03:19:01;;;;;;;16.48;2.15;;;;;;;7.52;100.00;99460.84;6229913;28;20056;-69
2023/12/10 03:22:02;;;;;;;22.27;2.67;;;;;;;7.46;100.00;99458.63;6228412;28;20346;-71
2023/12/10 03:25:04;;;;;;;17.33;2.22;;;;;;;7.53;100.00;99457.28;6238481;28;20070;-72
2023/12/10 03:28:07;;;;;;;14.15;2.33;;;;;;;7.54;100.00;99456.38;6234030;28;20396;-72
2023/12/10 03:31:08;;;;;;;20.70;2.70;;;;;;;7.53;100.00;99467.75;6236237;28;20061;-72
2023/12/10 03:34:09;;;;;;;21.13;2.50;;;;;;;7.50;100.00;99469.72;6245921;28;20051;-72
2023/12/10 03:37:11;;;;;;;14.65;2.15;;;;;;;7.56;100.00;99474.56;6226522;28;20453;-72
2023/12/10 03:40:13;;;;;;;17.73;2.30;;;;;;;7.59;100.00;99477.84;6240056;28;20049;-71
2023/12/10 03:43:15;;;;;;;14.18;3.10;;;;;;;7.66;100.00;99487.91;6235213;28;20045;-71
2023/12/10 03:46:17;;;;;;;20.30;2.83;;;;;;;7.63;100.00;99499.41;6241517;28;20347;-71
2023/12/10 03:49:18;;;;;;;20.83;2.47;;;;;;;7.65;100.00;99481.84;6233706;28;20054;-69
2023/12/10 03:52:19;;;;;;;17.30;2.63;;;;;;;7.57;100.00;99494.53;6230112;28;20056;-71
2023/12/10 03:55:21;;;;;;;14.40;2.80;;;;;;;7.56;100.00;99492.88;6225565;28;20060;-71
2023/12/10 03:58:23;;;;;;;14.88;2.00;;;;;;;7.57;100.00;99486.72;6225502;28;20454;-72
2023/12/10 04:01:25;;;;;;;9.98;1.98;;;;;;;7.56;100.00;99492.88;6232738;28;20048;-71
2023/12/10 04:04:26;;;;;;;20.13;2.70;;;;;;;7.48;100.00;99480.25;6246521;28;20064;-72
2023/12/10 04:07:27;;;;;;;13.93;2.95;;;;;;;7.56;100.00;99491.09;6234274;28;20435;-72
2023/12/10 04:10:29;;;;;;;23.40;3.28;;;;;;;7.50;100.00;99490.66;6230115;28;20060;-72
2023/12/10 04:13:31;;;;;;;16.05;2.22;;;;;;;7.50;100.00;99496.72;6230149;28;20323;-72
2023/12/10 04:16:33;;;;;;;24.88;2.30;;;;;;;7.55;100.00;99502.50;6229420;28;20050;-71
2023/12/10 04:19:34;;;;;;;13.93;2.13;;;;;;;7.59;100.00;99503.16;6229858;28;20049;-72
2023/12/10 04:22:35;;;;;;;11.43;2.35;;;;;;;7.58;100.00;99504.06;6229551;28;20430;-69
2023/12/10 04:25:37;;;;;;;19.52;2.55;;;;;;;7.57;100.00;99508.47;6230083;28;20057;-72
2023/12/10 04:28:40;;;;;;;11.35;2.13;;;;;;;7.57;100.00;99512.84;6229855;28;20362;-72
2023/12/10 04:31:41;;;;;;;13.23;2.05;;;;;;;7.58;100.00;99499.66;6229621;28;20060;-72
2023/12/10 04:34:43;;;;;;;7.10;2.70;;;;;;;7.49;100.00;99508.06;6229476;28;20346;-72
2023/12/10 04:37:44;;;;;;;8.90;2.25;;;;;;;7.51;100.00;99510.63;6239835;28;20065;-72
2023/12/10 04:40:45;;;;;;;14.18;1.98;;;;;;;7.48;100.00;99511.63;6254279;28;20155;-72
2023/12/10 04:43:48;;;;;;;14.48;1.88;;;;;;;7.50;100.00;99506.31;6253700;28;20354;-72
2023/12/10 04:46:50;;;;;;;14.55;2.20;;;;;;;7.50;100.00;99508.94;6254072;28;20045;-72
2023/12/10 04:49:52;;;;;;;17.80;3.17;;;;;;;7.50;100.00;99508.94;6253827;28;20060;-69
2023/12/10 04:52:53;;;;;;;11.48;2.00;;;;;;;7.49;100.00;99500.22;6253989;28;20053;-72
2023/12/10 04:55:54;;;;;;;17.48;2.30;;;;;;;7.53;100.00;99493.88;6253701;28;20057;-71
2023/12/10 04:58:57;;;;;;;11.27;2.03;;;;;;;7.59;100.00;99495.31;6253896;28;20052;-72
2023/12/10 05:01:58;;;;;;;12.68;2.00;;;;;;;7.58;100.00;99489.22;6253579;28;20133;-72
2023/12/10 05:04:59;;;;;;;7.85;1.75;;;;;;;7.50;100.00;99488.03;6253598;28;20045;-72
2023/12/10 05:08:01;;;;;;;15.18;3.92;;;;;;;7.52;100.00;99489.59;6253223;28;20056;-71
2023/12/10 05:11:03;;;;;;;14.20;1.50;;;;;;;7.50;100.00;99493.25;6252499;28;20072;-71
2023/12/10 05:14:06;;;;;;;12.93;1.50;;;;;;;7.50;100.00;99494.09;6253287;28;20054;-71
2023/12/10 05:17:07;;;;;;;12.43;1.98;;;;;;;7.52;100.00;99494.00;6253242;28;20076;-71
2023/12/10 05:20:09;;;;;;;5.10;0.98;;;;;;;7.67;100.00;99493.03;6246542;28;20056;-71
2023/12/10 05:23:11;;;;;;;9.05;1.35;;;;;;;7.58;100.00;99497.06;6244530;28;20042;-71
2023/12/10 05:26:12;;;;;;;15.13;1.88;;;;;;;7.54;100.00;99487.75;6243075;28;20500;-71
2023/12/10 05:29:16;;;;;;;13.57;2.58;;;;;;;7.45;100.00;99503.13;6251011;28;20437;-71
2023/12/10 05:32:17;;;;;;;8.57;1.80;;;;;;;7.46;100.00;99504.84;6243056;28;20052;-69
2023/12/10 05:35:18;;;;;;;12.00;1.27;;;;;;;7.38;100.00;99518.34;6252783;28;20426;-72
2023/12/10 05:38:19;;;;;;;6.30;1.00;;;;;;;7.48;100.00;99508.19;6252722;28;20049;-72
2023/12/10 05:41:21;;;;;;;10.13;1.27;;;;;;;7.44;100.00;99509.28;6252754;28;20056;-71
2023/12/10 05:44:23;;;;;;;7.03;2.33;;;;;;;7.37;100.00;99504.44;6252477;28;20045;-72
2023/12/10 05:47:25;;;;;;;11.25;1.20;;;;;;;7.32;100.00;99500.44;6252670;28;20049;-72
2023/12/10 05:50:26;;;;;;;10.98;1.83;;;;;;;7.23;100.00;99504.44;6252448;28;20054;-72
2023/12/10 05:53:27;;;;;;;4.70;1.63;;;;;;;7.23;100.00;99499.22;6252404;28;20265;-72
2023/12/10 05:56:29;;;;;;;16.55;2.13;;;;;;;7.24;100.00;99500.88;6252482;28;20061;-72
2023/12/10 05:59:31;;;;;;;5.75;1.25;;;;;;;7.23;100.00;99504.44;6241237;28;20042;-72
2023/12/10 06:02:33;;;;;;;14.65;0.90;;;;;;;7.19;100.00;99494.25;6252130;28;20049;-73
2023/12/10 06:05:34;;;;;;;6.72;1.15;;;;;;;7.12;100.00;99499.81;6243171;28;20046;-72
2023/12/10 06:08:35;;;;;;;11.25;1.13;;;;;;;7.13;100.00;99508.53;6243393;28;20430;-73
2023/12/10 06:11:37;;;;;;;7.75;1.10;;;;;;;7.11;100.00;99515.59;6252145;28;20056;-72
2023/12/10 06:14:39;;;;;;;10.93;1.30;;;;;;;7.12;100.00;99509.44;6251421;28;20484;-72
2023/12/10 06:17:41;;;;;;;6.85;1.23;;;;;;;7.12;100.00;99519.88;6251738;28;20055;-72
2023/12/10 06:20:42;;;;;;;5.60;1.05;;;;;;;7.05;100.00;99508.97;6251785;28;20057;-71
2023/12/10 06:23:43;;;;;;;6.45;1.10;;;;;;;7.05;100.00;99513.34;6230599;28;20053;-72
2023/12/10 06:26:45;;;;;;;6.95;1.30;;;;;;;6.97;100.00;99519.03;6213193;28;20058;-72
2023/12/10 06:29:47;;;;;;;6.25;0.98;;;;;;;6.91;100.00;99516.78;6215424;28;20056;-72
2023/12/10 06:32:49;;;;;;;9.77;1.67;;;;;;;6.92;100.00;99522.84;6202741;28;20070;-72
2023/12/10 06:35:50;;;;;;;16.08;1.70;;;;;;;6.97;100.00;99531.25;6202403;28;20054;-72
2023/12/10 06:38:52;;;;;;;5.28;0.85;;;;;;;6.89;100.00;99520.38;6202249;28;20428;-72
2023/12/10 06:41:54;;;;;;;13.60;2.17;;;;;;;6.86;100.00;99524.88;6202393;28;20423;-72
2023/12/10 06:44:56;;;;;;;4.03;1.08;;;;;;;6.86;100.00;99519.66;6202014;28;20046;-72
2023/12/10 06:47:58;;;;;;;4.75;0.93;;;;;;;6.86;100.00;99530.09;6202478;28;20137;-72
2023/12/10 06:50:59;;;;;;;4.57;0.60;;;;;;;6.90;100.00;99527.28;6201997;28;20061;-72
2023/12/10 06:54:00;;;;;;;10.45;1.30;;;;;;;6.83;100.00;99525.03;6202158;28;20042;-72
2023/12/10 06:57:03;;;;;;;6.55;1.08;;;;;;;6.81;100.00;99523.44;6207200;28;20046;-71
2023/12/10 07:00:07;;;;;;;9.02;1.33;;;;;;;6.83;100.00;99530.25;6202178;28;20046;-72
2023/12/10 07:03:08;;;;;;;3.65;1.17;;;;;;;6.88;100.00;99531.78;6201651;28;20506;-72
2023/12/10 07:06:10;;;;;;;5.97;1.40;;;;;;;6.85;100.00;99540.59;6212231;28;20046;-72
2023/12/10 07:09:12;;;;;;;8.40;1.50;;;;;;;6.83;100.00;99532.88;6212185;28;20057;-72
2023/12/10 07:12:14;;;;;;;8.77;1.00;;;;;;;6.77;100.00;99535.84;6217832;28;20053;-73
2023/12/10 07:15:17;;;;;;;8.85;1.08;;;;;;;6.82;100.00;99531.19;6225983;28;20112;-72
2023/12/10 07:18:18;;;;;;;3.95;0.88;;;;;;;6.83;100.00;99532.03;6226281;28;20466;-72
2023/12/10 07:21:20;;;;;;;4.45;1.20;;;;;;;6.83;100.00;99530.25;6233480;28;20050;-72
2023/12/10 07:24:21;;;;;;;12.38;1.45;;;;;;;6.85;100.00;99528.38;6238495;28;20347;-72
2023/12/10 07:27:23;;;;;;;5.82;1.95;;;;;;;6.85;100.00;99532.78;6214123;28;20053;-73
2023/12/10 07:30:25;;;;;;;2.03;0.68;;;;;;;6.91;100.00;99548.13;6224657;28;20054;-73
2023/12/10 07:33:27;;;;;;;3.67;1.20;;;;;;;6.82;100.00;99544.25;6213590;28;20332;-73
2023/12/10 07:36:28;;;;;;;6.65;1.65;;;;;;;6.80;100.00;99530.44;6211897;28;20057;-71
2023/12/10 07:39:29;;;;;;;7.20;1.20;;;;;;;6.80;100.00;99537.44;6214226;28;20216;-71
2023/12/10 07:42:30;;;;;;;5.95;1.08;;;;;;;6.85;100.00;99530.16;6224316;28;20061;-73
2023/12/10 07:45:33;;;;;;;8.50;1.38;;;;;;;6.80;100.00;99540.03;6214009;28;20298;-72
2023/12/10 07:48:34;;;;;;;9.77;1.98;;;;;;;6.88;100.00;99540.44;6212192;28;20046;-73
2023/12/10 07:51:36;;;;;;;2.58;0.70;;;;;;;6.81;100.00;99537.34;6213580;28;20045;-73
2023/12/10 07:54:38;;;;;;;9.15;1.35;;;;;;;6.88;100.00;99552.66;6217501;28;20046;-73
2023/12/10 07:57:39;;;;;;;4.78;1.25;;;;;;;6.93;100.00;99545.41;6222309;28;20050;-72
2023/12/10 08:00:46;;;;;;;8.23;1.38;;;;;;;6.91;100.00;99555.09;6215563;28;20053;-72
2023/12/10 08:03:48;;;;;;;5.93;1.10;;;;;;;6.90;100.00;99541.19;6215861;28;20057;-72
2023/12/10 08:06:49;;;;;;;13.98;2.20;;;;;;;6.94;100.00;99554.91;6224354;28;20050;-71
2023/12/10 08:09:51;;;;;;;4.18;1.20;;;;;;;6.93;100.00;99550.63;6225315;28;20053;-73
2023/12/10 08:12:52;;;;;;;16.50;2.53;;;;;;;6.96;100.00;99568.75;6225562;28;20057;-72
2023/12/10 08:15:54;;;;;;;8.10;1.67;;;;;;;7.00;100.00;99563.25;6225153;28;20346;-73
2023/12/10 08:18:57;;;;;;;9.32;1.45;;;;;;;7.04;100.00;99561.28;6225597;28;20053;-73
2023/12/10 08:21:58;;;;;;;8.88;1.52;;;;;;;7.01;100.00;99572.75;6225225;28;20057;-73
2023/12/10 08:24:59;;;;;;;7.85;1.88;;;;;;;7.09;100.00;99557.50;6233957;28;20057;-73
2023/12/10 08:28:01;;;;;;;7.20;1.38;;;;;;;7.12;100.00;99572.97;6235512;28;20068;-73
2023/12/10 08:31:03;;;;;;;7.18;1.38;;;;;;;7.06;100.00;99575.13;6237070;28;20053;-71
2023/12/10 08:34:05;;;;;;;11.57;1.25;;;;;;;7.04;100.00;99575.22;6232374;28;20038;-71
2023/12/10 08:37:07;;;;;;;12.80;1.55;;;;;;;7.06;100.00;99570.72;6212587;28;20046;-72
2023/12/10 08:40:09;;;;;;;5.93;1.05;;;;;;;7.08;100.00;99563.63;6219592;28;20046;-72
2023/12/10 08:43:10;;;;;;;7.03;1.20;;;;;;;7.08;100.00;99575.84;6222787;28;20054;-72
2023/12/10 08:46:13;;;;;;;3.40;1.30;;;;;;;7.09;100.00;99583.63;6228781;28;20038;-72
2023/12/10 08:49:14;;;;;;;6.97;1.17;;;;;;;7.10;100.00;99577.47;6229618;28;20123;-72
2023/12/10 08:52:16;;;;;;;8.02;1.80;;;;;;;7.14;100.00;99599.03;6237899;28;20073;-72
2023/12/10 08:55:17;;;;;;;8.35;1.45;;;;;;;7.14;100.00;99614.69;6233996;28;20046;-73
2023/12/10 08:58:18;;;;;;;9.18;2.15;;;;;;;7.10;100.00;99598.34;6246105;28;20049;-74
2023/12/10 09:01:21;;;;;;;8.77;1.85;;;;;;;7.17;100.00;99603.22;6235394;28;20060;-74
2023/12/10 09:04:23;;;;;;;5.35;1.02;;;;;;;7.19;100.00;99606.59;6227961;28;20714;-70
2023/12/10 09:07:25;;;;;;;10.90;1.65;;;;;;;7.20;100.00;99609.13;6230264;28;20041;-71
2023/12/10 09:10:27;;;;;;;7.75;0.90;;;;;;;7.15;100.00;99616.38;6241430;28;20513;-72
2023/12/10 09:13:28;;;;;;;12.38;1.50;;;;;;;7.24;100.00;99623.69;6236407;28;20290;-71
2023/12/10 09:16:31;;;;;;;5.22;1.58;;;;;;;7.26;100.00;99636.66;6244532;28;20350;-71
2023/12/10 09:19:33;;;;;;;10.45;1.95;;;;;;;7.26;100.00;99650.56;6231341;28;20053;-69
2023/12/10 09:22:35;;;;;;;13.52;1.55;;;;;;;7.30;100.00;99639.00;6223086;28;20057;-70
2023/12/10 09:25:37;;;;;;;4.80;1.00;;;;;;;7.32;100.00;99658.06;6234007;28;20042;-70
2023/12/10 09:28:38;;;;;;;3.38;0.90;;;;;;;7.33;100.00;99651.06;6232101;28;20049;-71
2023/12/10 09:31:41;;;;;;;8.27;1.30;;;;;;;7.33;100.00;99657.13;6235735;28;20394;-72
2023/12/10 09:34:42;;;;;;;11.23;1.52;;;;;;;7.35;100.00;99670.09;6228215;28;20046;-71
2023/12/10 09:37:43;;;;;;;18.48;1.33;;;;;;;7.36;100.00;99682.25;6228085;28;20434;-71
2023/12/10 09:40:45;;;;;;;3.38;1.20;;;;;;;7.30;100.00;99672.13;6236941;28;20053;-71
2023/12/10 09:43:46;;;;;;;11.13;1.42;;;;;;;7.30;100.00;99675.59;6242333;28;20179;-70
2023/12/10 09:46:49;;;;;;;6.82;1.50;;;;;;;7.32;100.00;99694.66;6237845;28;20438;-72
2023/12/10 09:49:53;;;;;;;2.35;1.10;;;;;;;7.30;100.00;99696.50;6248883;28;20053;-72
2023/12/10 09:52:55;;;;;;;8.18;1.23;;;;;;;7.28;100.00;99697.53;6231788;28;20050;-71
2023/12/10 09:55:56;;;;;;;2.85;1.05;;;;;;;7.30;100.00;99699.09;6227713;28;20050;-71
2023/12/10 09:58:57;;;;;;;2.20;0.50;;;;;;;7.32;100.00;99699.88;6227663;28;20050;-71
2023/12/10 10:02:00;;;;;;;6.75;0.90;;;;;;;7.33;100.00;99722.47;6230877;28;20050;-72
2023/12/10 10:05:03;;;;;;;4.60;1.10;;;;;;;7.32;100.00;99720.78;6237772;28;20053;-71
2023/12/10 10:08:05;;;;;;;3.55;1.00;;;;;;;7.31;100.00;99716.50;6227451;28;20068;-71
2023/12/10 10:11:06;;;;;;;2.20;0.98;;;;;;;7.29;100.00;99720.13;6239567;28;20353;-72
2023/12/10 10:14:07;;;;;;;7.25;0.82;;;;;;;7.39;100.00;99736.94;6248444;28;20426;-70
2023/12/10 10:17:10;;;;;;;11.02;1.15;;;;;;;7.41;100.00;99735.13;6239869;28;20076;-71
2023/12/10 10:20:12;;;;;;;4.38;1.00;;;;;;;7.45;100.00;99764.50;6251834;28;20081;-70
2023/12/10 10:23:14;;;;;;;2.60;1.08;;;;;;;7.41;100.00;99744.72;6247313;28;20053;-71
2023/12/10 10:26:15;;;;;;;3.47;0.57;;;;;;;7.44;100.00;99758.44;6240748;28;20045;-71
2023/12/10 10:29:16;;;;;;;3.47;0.95;;;;;;;7.38;100.00;99771.88;6232165;28;20073;-70
2023/12/10 10:32:20;;;;;;;6.18;1.40;;;;;;;7.38;100.00;99784.94;6212008;28;20359;-72
2023/12/10 10:35:22;;;;;;;2.60;0.50;;;;;;;7.31;100.00;99776.59;6216315;28;20045;-71
2023/12/10 10:38:23;;;;;;;7.35;1.30;;;;;;;7.36;100.00;99768.50;6217851;28;20049;-71
2023/12/10 10:41:26;;;;;;;3.05;0.82;;;;;;;7.41;100.00;99770.88;6217417;28;20053;-71
2023/12/10 10:44:27;;;;;;;8.40;1.10;;;;;;;7.33;100.00;99766.91;6222101;28;20457;-71
2023/12/10 10:47:32;;;;;;;3.00;1.35;;;;;;;7.35;100.00;99780.72;6221004;28;20049;-69
2023/12/10 10:50:37;;;;;;;3.13;1.50;;;;;;;7.43;100.00;99789.91;6221670;28;20438;-71
2023/12/10 10:53:39;;;;;;;6.53;1.02;;;;;;;7.35;100.00;99799.00;6214928;28;20050;-70
2023/12/10 10:56:41;;;;;;;7.25;1.08;;;;;;;7.37;100.00;99798.94;6240425;28;20065;-71
2023/12/10 10:59:42;;;;;;;4.38;0.73;;;;;;;7.40;100.00;99800.53;6234289;28;20362;-72
2023/12/10 11:02:46;;;;;;;1.30;0.77;;;;;;;7.40;100.00;99810.97;6238359;28;20061;-72
2023/12/10 11:05:48;;;;;;;8.45;1.45;;;;;;;7.37;100.00;99814.63;6225599;28;20045;-72
2023/12/10 11:08:55;;;;;;;2.08;1.27;;;;;;;7.43;100.00;99821.28;6233044;28;20064;-72
2023/12/10 11:11:57;;;;;;;1.48;0.98;;;;;;;7.47;100.00;99831.47;6237097;28;20081;-72
2023/12/10 11:14:58;;;;;;;3.17;0.90;;;;;;;7.47;100.00;99836.69;6250528;28;20049;-72
2023/12/10 11:18:02;;;;;;;10.65;1.05;;;;;;;7.47;100.00;99831.47;6250968;28;20057;-72
2023/12/10 11:21:03;;;;;;;5.97;1.10;;;;;;;7.52;100.00;99828.59;6232399;28;20331;-72
2023/12/10 11:24:05;;;;;;;10.88;1.45;;;;;;;7.49;100.00;99832.22;6226624;28;20430;-71
2023/12/10 11:27:11;;;;;;;4.30;0.88;;;;;;;7.44;100.00;99849.09;6230201;28;20042;-71
2023/12/10 11:30:13;;;;;;;9.68;1.30;;;;;;;7.44;100.00;99863.00;6238875;28;20467;-73
2023/12/10 11:33:16;;;;;;;5.85;1.23;;;;;;;7.47;100.00;99867.22;6237488;28;20057;-72
2023/12/10 11:36:18;;;;;;;13.15;1.00;;;;;;;7.48;100.00;99861.91;6232945;28;20042;-73
2023/12/10 11:39:19;;;;;;;6.20;1.17;;;;;;;7.46;100.00;99865.56;6233937;28;20050;-73
2023/12/10 11:42:20;;;;;;;12.00;1.13;;;;;;;7.41;100.00;99867.56;6238127;28;20347;-74
2023/12/10 11:45:22;;;;;;;6.75;0.77;;;;;;;7.38;100.00;99872.03;6239870;28;20052;-72
2023/12/10 11:48:25;;;;;;;5.63;1.60;;;;;;;7.41;100.00;99880.66;6221419;28;20469;-70
2023/12/10 11:51:26;;;;;;;3.35;0.80;;;;;;;7.42;100.00;99884.94;6215385;28;20050;-69
2023/12/10 11:54:27;;;;;;;4.82;1.27;;;;;;;7.45;100.00;99884.75;6218695;28;20042;-69
2023/12/10 11:57:29;;;;;;;4.97;0.60;;;;;;;7.38;100.00;99900.78;6218830;28;20435;-70
2023/12/10 12:00:30;;;;;;;8.52;2.40;;;;;;;7.44;100.00;99893.53;6223534;28;20042;-70
2023/12/10 12:03:33;;;;;;;1.63;0.50;;;;;;;7.50;100.00;99886.22;6219916;28;20050;-69
2023/12/10 12:06:44;;;;;;;6.28;1.02;;;;;;;7.48;100.00;99897.66;6214722;28;20046;-70
2023/12/10 12:09:45;;;;;;;1.65;0.85;;;;;;;7.41;100.00;99897.16;6229797;28;20629;-68
2023/12/10 12:12:48;;;;;;;3.90;1.05;;;;;;;7.46;100.00;99910.84;6233179;28;20057;-68
2023/12/10 12:15:51;;;;;;;10.45;1.35;;;;;;;7.42;100.00;99904.06;6235770;28;20141;-70
2023/12/10 12:18:53;;;;;;;13.10;1.67;;;;;;;7.40;100.00;99892.00;6241464;28;20076;-70
2023/12/10 12:21:56;;;;;;;11.60;1.98;;;;;;;7.43;100.00;99908.38;6253767;28;20060;-71
2023/12/10 12:24:58;;;;;;;4.85;1.17;;;;;;;7.44;100.00;99899.59;6254450;28;20052;-69
2023/12/10 12:27:59;;;;;;;14.30;2.00;;;;;;;7.50;100.00;99912.34;6235451;28;20053;-70
2023/12/10 12:31:01;;;;;;;11.50;2.22;;;;;;;7.51;100.00;99916.66;6242532;28;20049;-70
2023/12/10 12:34:04;;;;;;;10.60;2.28;;;;;;;7.61;100.00;99927.44;6235728;28;20477;-69
2023/12/10 12:37:05;;;;;;;8.18;1.95;;;;;;;7.59;100.00;99929.31;6231746;28;20052;-73
2023/12/10 12:40:08;;;;;;;20.40;2.53;;;;;;;7.68;100.00;99933.22;6240940;28;20073;-71
2023/12/10 12:43:09;;;;;;;21.42;1.92;;;;;;;7.67;100.00;99934.13;6232828;28;20050;-74
2023/12/10 12:46:10;;;;;;;9.45;1.63;;;;;;;7.76;100.00;99957.16;6215746;28;20041;-73
2023/12/10 12:49:13;;;;;;;14.50;3.08;;;;;;;7.76;100.00;99951.91;6217866;28;20058;-73
2023/12/10 12:52:15;;;;;;;22.58;2.55;;;;;;;7.76;100.00;99954.53;6215562;28;20053;-73
2023/12/10 12:55:16;;;;;;;14.90;2.03;;;;;;;7.71;100.00;99960.00;6233769;28;20153;-71
2023/12/10 12:58:17;;;;;;;12.50;2.10;;;;;;;7.80;100.00;99948.22;6237518;28;20125;-73
2023/12/10 13:01:19;;;;;;;9.23;2.33;;;;;;;7.76;100.00;99959.75;6242683;28;20049;-73
2023/12/10 13:04:21;;;;;;;5.97;1.45;;;;;;;7.75;100.00;99965.94;6253701;28;20057;-73
2023/12/10 13:07:23;;;;;;;17.05;2.40;;;;;;;7.82;100.00;99969.91;6233544;28;20045;-73
2023/12/10 13:10:24;;;;;;;18.67;1.92;;;;;;;7.83;100.00;99956.75;6228903;28;20050;-73
2023/12/10 13:13:25;;;;;;;15.85;1.90;;;;;;;7.92;100.00;99955.41;6223959;28;20133;-73
2023/12/10 13:16:27;;;;;;;8.20;1.83;;;;;;;7.95;100.00;99970.94;6222031;28;20048;-73
2023/12/10 13:19:29;;;;;;;11.13;1.65;;;;;;;7.94;100.00;99973.63;6227446;28;20048;-72
2023/12/10 13:22:31;;;;;;;6.97;1.25;;;;;;;7.98;100.00;99969.91;6225743;28;20099;-73
2023/12/10 13:25:33;;;;;;;12.30;1.77;;;;;;;7.96;100.00;99990.94;6228560;28;20046;-74
2023/12/10 13:28:34;;;;;;;9.45;1.40;;;;;;;8.04;100.00;99986.13;6218602;28;20058;-72
2023/12/10 13:31:36;;;;;;;7.43;1.58;;;;;;;8.12;100.00;100001.38;6216790;28;20378;-73
2023/12/10 13:34:39;;;;;;;5.47;1.25;;;;;;;8.09;100.00;99998.97;6235590;28;20046;-73
2023/12/10 13:37:40;;;;;;;12.05;1.30;;;;;;;8.14;100.00;100003.00;6218306;28;20355;-74
2023/12/10 13:40:42;;;;;;;7.05;1.20;;;;;;;8.16;100.00;100015.16;6244079;28;20069;-74
2023/12/10 13:43:43;;;;;;;20.02;1.85;;;;;;;8.12;100.00;100010.06;6238116;28;20050;-74
2023/12/10 13:46:46;;;;;;;5.80;1.45;;;;;;;8.10;100.00;100017.19;6242430;28;20074;-74
2023/12/10 13:49:49;;;;;;;15.65;2.53;;;;;;;8.05;100.00;100026.22;6248657;28;20098;-73
2023/12/10 13:52:51;;;;;;;6.78;1.35;;;;;;;8.08;100.00;100026.91;6245733;28;20181;-73
2023/12/10 13:55:52;;;;;;;7.00;1.15;;;;;;;8.05;100.00;100026.22;6249369;28;20050;-74
2023/12/10 13:58:54;;;;;;;8.02;1.25;;;;;;;8.11;100.00;100041.56;6229699;28;20434;-74
2023/12/10 14:01:55;;;;;;;5.22;1.08;;;;;;;7.85;100.00;100037.72;6218040;28;20172;-75
2023/12/10 14:04:58;;;;;;;8.30;1.23;;;;;;;7.80;100.00;100035.38;6224831;28;20046;-74
2023/12/10 14:08:00;;;;;;;10.20;1.13;;;;;;;7.67;100.00;100039.56;6227299;28;20489;-73
2023/12/10 14:11:02;;;;;;;9.15;1.77;;;;;;;7.84;100.00;100036.91;6237800;28;20061;-73